sensor_id;sensor_type;location;lat;lon;timestamp;P1;durP1;ratioP1;P2;durP2;ratioP2
1366;SDS011;16877;48.810;9.282;2022-11-20T00:02:08;5.80;;;5.07;;
1366;SDS011;16877;48.810;9.282;2022-11-20T00:04:35;4.90;;;4.20;;
1366;SDS011;16877;48.810;9.282;2022-11-20T00:07:02;5.53;;;4.40;;
1366;SDS011;16877;48.810;9.282;2022-11-20T00:09:30;4.93;;;4.43;;
1366;SDS011;16877;48.810;9.282;2022-11-20T00:11:56;5.83;;;5.23;;
1366;SDS011;16877;48.810;9.282;2022-11-20T00:14:23;5.33;;;4.80;;
1366;SDS011;16877;48.810;9.282;2022-11-20T00:16:50;5.33;;;4.77;;
1366;SDS011;16877;48.810;9.282;2022-11-20T00:19:16;6.60;;;4.70;;
1366;SDS011;16877;48.810;9.282;2022-11-20T00:21:43;5.67;;;5.07;;
1366;SDS011;16877;48.810;9.282;2022-11-20T00:24:10;5.73;;;5.13;;
1366;SDS011;16877;48.810;9.282;2022-11-20T00:26:38;5.80;;;5.20;;
1366;SDS011;16877;48.810;9.282;2022-11-20T00:29:05;6.37;;;5.77;;
1366;SDS011;16877;48.810;9.282;2022-11-20T00:31:31;6.27;;;5.10;;
1366;SDS011;16877;48.810;9.282;2022-11-20T00:33:58;5.90;;;5.30;;
1366;SDS011;16877;48.810;9.282;2022-11-20T00:36:26;5.57;;;5.07;;
1366;SDS011;16877;48.810;9.282;2022-11-20T00:38:54;5.70;;;5.00;;
1366;SDS011;16877;48.810;9.282;2022-11-20T00:41:22;7.00;;;5.67;;
1366;SDS011;16877;48.810;9.282;2022-11-20T00:43:52;7.00;;;6.30;;
1366;SDS011;16877;48.810;9.282;2022-11-20T00:46:20;8.53;;;5.70;;
1366;SDS011;16877;48.810;9.282;2022-11-20T00:48:48;5.30;;;4.80;;
1366;SDS011;16877;48.810;9.282;2022-11-20T00:51:16;7.50;;;6.13;;
1366;SDS011;16877;48.810;9.282;2022-11-20T00:53:44;5.87;;;4.70;;
1366;SDS011;16877;48.810;9.282;2022-11-20T00:56:13;5.93;;;5.00;;
1366;SDS011;16877;48.810;9.282;2022-11-20T00:58:42;6.50;;;4.80;;
1366;SDS011;16877;48.810;9.282;2022-11-20T01:01:12;5.10;;;4.60;;
1366;SDS011;16877;48.810;9.282;2022-11-20T01:03:40;4.70;;;4.20;;
1366;SDS011;16877;48.810;9.282;2022-11-20T01:06:09;5.80;;;4.70;;
1366;SDS011;16877;48.810;9.282;2022-11-20T01:08:38;3.93;;;3.50;;
1366;SDS011;16877;48.810;9.282;2022-11-20T01:11:08;5.37;;;4.87;;
1366;SDS011;16877;48.810;9.282;2022-11-20T01:13:37;5.43;;;4.70;;
1366;SDS011;16877;48.810;9.282;2022-11-20T01:16:05;4.53;;;3.40;;
1366;SDS011;16877;48.810;9.282;2022-11-20T01:18:35;4.80;;;4.03;;
1366;SDS011;16877;48.810;9.282;2022-11-20T01:21:03;5.30;;;4.17;;
1366;SDS011;16877;48.810;9.282;2022-11-20T01:23:31;5.67;;;4.10;;
1366;SDS011;16877;48.810;9.282;2022-11-20T01:25:59;4.97;;;3.97;;
1366;SDS011;16877;48.810;9.282;2022-11-20T01:28:27;5.07;;;3.97;;
1366;SDS011;16877;48.810;9.282;2022-11-20T01:30:54;5.43;;;4.40;;
1366;SDS011;16877;48.810;9.282;2022-11-20T01:33:21;6.20;;;4.40;;
1366;SDS011;16877;48.810;9.282;2022-11-20T01:35:49;5.70;;;4.53;;
1366;SDS011;16877;48.810;9.282;2022-11-20T01:38:16;4.10;;;3.60;;
1366;SDS011;16877;48.810;9.282;2022-11-20T01:40:45;4.73;;;3.63;;
1366;SDS011;16877;48.810;9.282;2022-11-20T01:43:12;4.10;;;3.47;;
1366;SDS011;16877;48.810;9.282;2022-11-20T01:45:53;4.20;;;3.00;;
1366;SDS011;16877;48.810;9.282;2022-11-20T01:48:25;3.47;;;2.70;;
1366;SDS011;16877;48.810;9.282;2022-11-20T01:50:57;3.27;;;2.57;;
1366;SDS011;16877;48.810;9.282;2022-11-20T01:53:25;3.00;;;2.30;;
1366;SDS011;16877;48.810;9.282;2022-11-20T01:55:56;4.27;;;2.63;;
1366;SDS011;16877;48.810;9.282;2022-11-20T01:58:27;3.20;;;2.00;;
1366;SDS011;16877;48.810;9.282;2022-11-20T02:00:56;3.13;;;2.13;;
1366;SDS011;16877;48.810;9.282;2022-11-20T02:03:23;3.97;;;2.30;;
1366;SDS011;16877;48.810;9.282;2022-11-20T02:05:51;3.00;;;2.00;;
1366;SDS011;16877;48.810;9.282;2022-11-20T02:08:23;3.20;;;2.57;;
1366;SDS011;16877;48.810;9.282;2022-11-20T02:10:50;4.70;;;2.40;;
1366;SDS011;16877;48.810;9.282;2022-11-20T02:13:16;4.40;;;2.40;;
1366;SDS011;16877;48.810;9.282;2022-11-20T02:16:00;2.43;;;1.80;;
1366;SDS011;16877;48.810;9.282;2022-11-20T02:18:28;3.80;;;2.43;;
1366;SDS011;16877;48.810;9.282;2022-11-20T02:20:58;2.90;;;2.23;;
1366;SDS011;16877;48.810;9.282;2022-11-20T02:23:33;4.40;;;2.03;;
1366;SDS011;16877;48.810;9.282;2022-11-20T02:26:06;3.33;;;1.80;;
1366;SDS011;16877;48.810;9.282;2022-11-20T02:28:37;2.93;;;1.90;;
1366;SDS011;16877;48.810;9.282;2022-11-20T02:31:04;2.57;;;1.83;;
1366;SDS011;16877;48.810;9.282;2022-11-20T02:33:30;2.90;;;1.83;;
1366;SDS011;16877;48.810;9.282;2022-11-20T02:35:57;3.17;;;2.00;;
1366;SDS011;16877;48.810;9.282;2022-11-20T02:38:24;2.57;;;2.00;;
1366;SDS011;16877;48.810;9.282;2022-11-20T02:40:51;2.87;;;2.20;;
1366;SDS011;16877;48.810;9.282;2022-11-20T02:43:19;3.10;;;2.13;;
1366;SDS011;16877;48.810;9.282;2022-11-20T02:45:45;4.47;;;2.57;;
1366;SDS011;16877;48.810;9.282;2022-11-20T02:48:12;2.40;;;1.90;;
1366;SDS011;16877;48.810;9.282;2022-11-20T02:50:39;3.00;;;2.20;;
1366;SDS011;16877;48.810;9.282;2022-11-20T02:53:06;3.60;;;1.93;;
1366;SDS011;16877;48.810;9.282;2022-11-20T02:55:33;2.60;;;1.83;;
1366;SDS011;16877;48.810;9.282;2022-11-20T02:57:59;4.57;;;2.40;;
1366;SDS011;16877;48.810;9.282;2022-11-20T03:00:27;2.83;;;1.80;;
1366;SDS011;16877;48.810;9.282;2022-11-20T03:02:54;3.27;;;2.00;;
1366;SDS011;16877;48.810;9.282;2022-11-20T03:05:21;2.43;;;1.87;;
1366;SDS011;16877;48.810;9.282;2022-11-20T03:07:47;3.30;;;2.00;;
1366;SDS011;16877;48.810;9.282;2022-11-20T03:10:15;3.13;;;2.53;;
1366;SDS011;16877;48.810;9.282;2022-11-20T03:12:41;4.10;;;2.43;;
1366;SDS011;16877;48.810;9.282;2022-11-20T03:15:08;3.23;;;2.03;;
1366;SDS011;16877;48.810;9.282;2022-11-20T03:17:37;3.73;;;2.60;;
1366;SDS011;16877;48.810;9.282;2022-11-20T03:20:04;2.90;;;2.33;;
1366;SDS011;16877;48.810;9.282;2022-11-20T03:22:32;4.17;;;2.70;;
1366;SDS011;16877;48.810;9.282;2022-11-20T03:24:59;3.53;;;2.43;;
1366;SDS011;16877;48.810;9.282;2022-11-20T03:27:25;4.77;;;2.03;;
1366;SDS011;16877;48.810;9.282;2022-11-20T03:29:52;5.73;;;2.57;;
1366;SDS011;16877;48.810;9.282;2022-11-20T03:32:19;3.17;;;2.10;;
1366;SDS011;16877;48.810;9.282;2022-11-20T03:34:47;2.77;;;2.30;;
1366;SDS011;16877;48.810;9.282;2022-11-20T03:37:13;3.40;;;2.37;;
1366;SDS011;16877;48.810;9.282;2022-11-20T03:39:40;2.60;;;2.13;;
1366;SDS011;16877;48.810;9.282;2022-11-20T03:42:07;2.80;;;2.30;;
1366;SDS011;16877;48.810;9.282;2022-11-20T03:44:54;3.67;;;2.37;;
1366;SDS011;16877;48.810;9.282;2022-11-20T03:47:21;4.00;;;2.90;;
1366;SDS011;16877;48.810;9.282;2022-11-20T03:49:49;2.80;;;2.20;;
1366;SDS011;16877;48.810;9.282;2022-11-20T03:52:16;2.70;;;2.10;;
1366;SDS011;16877;48.810;9.282;2022-11-20T03:54:42;3.10;;;2.40;;
1366;SDS011;16877;48.810;9.282;2022-11-20T03:57:09;2.67;;;2.20;;
1366;SDS011;16877;48.810;9.282;2022-11-20T03:59:36;5.27;;;2.87;;
1366;SDS011;16877;48.810;9.282;2022-11-20T04:02:02;3.23;;;2.30;;
1366;SDS011;16877;48.810;9.282;2022-11-20T04:04:29;3.27;;;2.50;;
1366;SDS011;16877;48.810;9.282;2022-11-20T04:06:57;3.10;;;2.20;;
1366;SDS011;16877;48.810;9.282;2022-11-20T04:09:24;3.20;;;2.37;;
1366;SDS011;16877;48.810;9.282;2022-11-20T04:11:51;3.33;;;2.20;;
1366;SDS011;16877;48.810;9.282;2022-11-20T04:14:17;3.60;;;3.10;;
1366;SDS011;16877;48.810;9.282;2022-11-20T04:16:44;6.23;;;3.70;;
1366;SDS011;16877;48.810;9.282;2022-11-20T04:19:12;3.50;;;2.13;;
1366;SDS011;16877;48.810;9.282;2022-11-20T04:21:39;4.27;;;2.70;;
1366;SDS011;16877;48.810;9.282;2022-11-20T04:24:08;6.07;;;3.10;;
1366;SDS011;16877;48.810;9.282;2022-11-20T04:26:35;3.90;;;2.77;;
1366;SDS011;16877;48.810;9.282;2022-11-20T04:29:02;3.60;;;2.67;;
1366;SDS011;16877;48.810;9.282;2022-11-20T04:31:30;4.23;;;3.10;;
1366;SDS011;16877;48.810;9.282;2022-11-20T04:33:58;5.17;;;2.97;;
1366;SDS011;16877;48.810;9.282;2022-11-20T04:36:26;4.97;;;2.50;;
1366;SDS011;16877;48.810;9.282;2022-11-20T04:38:54;3.77;;;2.33;;
1366;SDS011;16877;48.810;9.282;2022-11-20T04:41:24;3.77;;;2.93;;
1366;SDS011;16877;48.810;9.282;2022-11-20T04:43:53;2.77;;;2.23;;
1366;SDS011;16877;48.810;9.282;2022-11-20T04:46:24;3.50;;;2.40;;
1366;SDS011;16877;48.810;9.282;2022-11-20T04:48:52;4.07;;;2.70;;
1366;SDS011;16877;48.810;9.282;2022-11-20T04:51:18;3.20;;;2.60;;
1366;SDS011;16877;48.810;9.282;2022-11-20T04:53:45;4.37;;;2.90;;
1366;SDS011;16877;48.810;9.282;2022-11-20T04:56:12;3.47;;;2.87;;
1366;SDS011;16877;48.810;9.282;2022-11-20T04:58:40;3.70;;;2.50;;
1366;SDS011;16877;48.810;9.282;2022-11-20T05:01:09;3.77;;;2.43;;
1366;SDS011;16877;48.810;9.282;2022-11-20T05:03:38;4.83;;;2.60;;
1366;SDS011;16877;48.810;9.282;2022-11-20T05:06:05;4.17;;;2.37;;
1366;SDS011;16877;48.810;9.282;2022-11-20T05:08:33;2.87;;;2.30;;
1366;SDS011;16877;48.810;9.282;2022-11-20T05:11:00;2.90;;;2.40;;
1366;SDS011;16877;48.810;9.282;2022-11-20T05:13:28;3.60;;;2.47;;
1366;SDS011;16877;48.810;9.282;2022-11-20T05:15:59;3.67;;;2.90;;
1366;SDS011;16877;48.810;9.282;2022-11-20T05:18:27;4.53;;;2.70;;
1366;SDS011;16877;48.810;9.282;2022-11-20T05:20:55;4.17;;;3.10;;
1366;SDS011;16877;48.810;9.282;2022-11-20T05:23:22;4.13;;;3.03;;
1366;SDS011;16877;48.810;9.282;2022-11-20T05:25:51;3.90;;;3.23;;
1366;SDS011;16877;48.810;9.282;2022-11-20T05:28:18;4.17;;;3.47;;
1366;SDS011;16877;48.810;9.282;2022-11-20T05:30:45;4.23;;;3.20;;
1366;SDS011;16877;48.810;9.282;2022-11-20T05:33:13;3.70;;;2.47;;
1366;SDS011;16877;48.810;9.282;2022-11-20T05:35:40;4.07;;;3.43;;
1366;SDS011;16877;48.810;9.282;2022-11-20T05:38:07;4.30;;;2.87;;
1366;SDS011;16877;48.810;9.282;2022-11-20T05:40:34;4.90;;;3.57;;
1366;SDS011;16877;48.810;9.282;2022-11-20T05:43:00;3.63;;;2.73;;
1366;SDS011;16877;48.810;9.282;2022-11-20T05:45:27;3.80;;;2.90;;
1366;SDS011;16877;48.810;9.282;2022-11-20T05:47:57;6.53;;;3.80;;
1366;SDS011;16877;48.810;9.282;2022-11-20T05:50:26;3.87;;;2.93;;
1366;SDS011;16877;48.810;9.282;2022-11-20T05:52:53;5.80;;;3.13;;
1366;SDS011;16877;48.810;9.282;2022-11-20T05:55:20;3.90;;;2.80;;
1366;SDS011;16877;48.810;9.282;2022-11-20T05:57:46;3.27;;;2.47;;
1366;SDS011;16877;48.810;9.282;2022-11-20T06:00:13;3.50;;;2.50;;
1366;SDS011;16877;48.810;9.282;2022-11-20T06:02:41;3.90;;;2.60;;
1366;SDS011;16877;48.810;9.282;2022-11-20T06:05:08;3.40;;;2.53;;
1366;SDS011;16877;48.810;9.282;2022-11-20T06:07:36;4.30;;;3.03;;
1366;SDS011;16877;48.810;9.282;2022-11-20T06:10:02;3.27;;;2.30;;
1366;SDS011;16877;48.810;9.282;2022-11-20T06:12:30;3.67;;;2.27;;
1366;SDS011;16877;48.810;9.282;2022-11-20T06:14:57;3.07;;;2.50;;
1366;SDS011;16877;48.810;9.282;2022-11-20T06:17:24;3.87;;;2.10;;
1366;SDS011;16877;48.810;9.282;2022-11-20T06:19:51;2.93;;;1.83;;
1366;SDS011;16877;48.810;9.282;2022-11-20T06:22:18;3.70;;;2.63;;
1366;SDS011;16877;48.810;9.282;2022-11-20T06:24:46;3.10;;;2.30;;
1366;SDS011;16877;48.810;9.282;2022-11-20T06:27:12;2.70;;;2.07;;
1366;SDS011;16877;48.810;9.282;2022-11-20T06:29:39;2.50;;;1.93;;
1366;SDS011;16877;48.810;9.282;2022-11-20T06:32:06;4.67;;;2.50;;
1366;SDS011;16877;48.810;9.282;2022-11-20T06:34:33;2.60;;;2.10;;
1366;SDS011;16877;48.810;9.282;2022-11-20T06:36:59;3.30;;;1.97;;
1366;SDS011;16877;48.810;9.282;2022-11-20T06:39:26;3.57;;;2.20;;
1366;SDS011;16877;48.810;9.282;2022-11-20T06:41:54;3.90;;;2.10;;
1366;SDS011;16877;48.810;9.282;2022-11-20T06:44:21;3.30;;;2.70;;
1366;SDS011;16877;48.810;9.282;2022-11-20T06:46:47;3.50;;;2.73;;
1366;SDS011;16877;48.810;9.282;2022-11-20T06:49:14;3.43;;;2.63;;
1366;SDS011;16877;48.810;9.282;2022-11-20T06:51:41;3.00;;;1.90;;
1366;SDS011;16877;48.810;9.282;2022-11-20T06:54:07;3.93;;;2.80;;
1366;SDS011;16877;48.810;9.282;2022-11-20T06:56:34;2.53;;;1.83;;
1366;SDS011;16877;48.810;9.282;2022-11-20T06:59:04;2.97;;;2.13;;
1366;SDS011;16877;48.810;9.282;2022-11-20T07:01:32;3.23;;;1.87;;
1366;SDS011;16877;48.810;9.282;2022-11-20T07:03:59;4.10;;;2.50;;
1366;SDS011;16877;48.810;9.282;2022-11-20T07:06:27;2.80;;;1.83;;
1366;SDS011;16877;48.810;9.282;2022-11-20T07:08:53;3.03;;;2.07;;
1366;SDS011;16877;48.810;9.282;2022-11-20T07:11:20;3.00;;;2.30;;
1366;SDS011;16877;48.810;9.282;2022-11-20T07:13:47;3.43;;;2.43;;
1366;SDS011;16877;48.810;9.282;2022-11-20T07:16:15;4.87;;;3.07;;
1366;SDS011;16877;48.810;9.282;2022-11-20T07:18:42;4.63;;;3.17;;
1366;SDS011;16877;48.810;9.282;2022-11-20T07:21:09;3.27;;;2.50;;
1366;SDS011;16877;48.810;9.282;2022-11-20T07:23:36;3.23;;;2.47;;
1366;SDS011;16877;48.810;9.282;2022-11-20T07:26:04;3.10;;;2.30;;
1366;SDS011;16877;48.810;9.282;2022-11-20T07:28:31;3.40;;;2.30;;
1366;SDS011;16877;48.810;9.282;2022-11-20T07:30:58;2.77;;;2.20;;
1366;SDS011;16877;48.810;9.282;2022-11-20T07:33:26;2.83;;;2.10;;
1366;SDS011;16877;48.810;9.282;2022-11-20T07:35:53;2.60;;;1.93;;
1366;SDS011;16877;48.810;9.282;2022-11-20T07:38:20;2.90;;;2.03;;
1366;SDS011;16877;48.810;9.282;2022-11-20T07:40:46;3.57;;;2.30;;
1366;SDS011;16877;48.810;9.282;2022-11-20T07:43:13;2.80;;;2.30;;
1366;SDS011;16877;48.810;9.282;2022-11-20T07:45:40;3.10;;;2.00;;
1366;SDS011;16877;48.810;9.282;2022-11-20T07:48:07;3.33;;;2.37;;
1366;SDS011;16877;48.810;9.282;2022-11-20T07:50:35;3.20;;;2.60;;
1366;SDS011;16877;48.810;9.282;2022-11-20T07:53:02;2.93;;;1.87;;
1366;SDS011;16877;48.810;9.282;2022-11-20T07:55:30;3.20;;;2.10;;
1366;SDS011;16877;48.810;9.282;2022-11-20T07:57:57;2.90;;;2.20;;
1366;SDS011;16877;48.810;9.282;2022-11-20T08:00:24;2.60;;;1.87;;
1366;SDS011;16877;48.810;9.282;2022-11-20T08:02:52;3.70;;;2.50;;
1366;SDS011;16877;48.810;9.282;2022-11-20T08:05:19;2.93;;;2.30;;
1366;SDS011;16877;48.810;9.282;2022-11-20T08:07:47;4.00;;;2.43;;
1366;SDS011;16877;48.810;9.282;2022-11-20T08:10:14;4.40;;;2.33;;
1366;SDS011;16877;48.810;9.282;2022-11-20T08:12:45;3.17;;;2.27;;
1366;SDS011;16877;48.810;9.282;2022-11-20T08:15:31;3.10;;;2.00;;
1366;SDS011;16877;48.810;9.282;2022-11-20T08:18:01;4.63;;;2.40;;
1366;SDS011;16877;48.810;9.282;2022-11-20T08:20:29;3.13;;;2.33;;
1366;SDS011;16877;48.810;9.282;2022-11-20T08:23:01;2.70;;;1.60;;
1366;SDS011;16877;48.810;9.282;2022-11-20T08:25:30;2.77;;;2.30;;
1366;SDS011;16877;48.810;9.282;2022-11-20T08:27:58;3.20;;;2.27;;
1366;SDS011;16877;48.810;9.282;2022-11-20T08:30:25;3.43;;;2.13;;
1366;SDS011;16877;48.810;9.282;2022-11-20T08:32:52;3.20;;;2.40;;
1366;SDS011;16877;48.810;9.282;2022-11-20T08:35:19;3.07;;;2.40;;
1366;SDS011;16877;48.810;9.282;2022-11-20T08:37:46;3.83;;;2.43;;
1366;SDS011;16877;48.810;9.282;2022-11-20T08:40:14;2.33;;;1.73;;
1366;SDS011;16877;48.810;9.282;2022-11-20T08:42:45;2.40;;;1.60;;
1366;SDS011;16877;48.810;9.282;2022-11-20T08:45:13;3.57;;;1.90;;
1366;SDS011;16877;48.810;9.282;2022-11-20T08:47:40;3.23;;;2.10;;
1366;SDS011;16877;48.810;9.282;2022-11-20T08:50:07;2.83;;;1.90;;
1366;SDS011;16877;48.810;9.282;2022-11-20T08:52:34;2.77;;;1.80;;
1366;SDS011;16877;48.810;9.282;2022-11-20T08:55:01;3.37;;;2.30;;
1366;SDS011;16877;48.810;9.282;2022-11-20T08:57:32;2.27;;;1.80;;
1366;SDS011;16877;48.810;9.282;2022-11-20T08:59:59;3.87;;;2.00;;
1366;SDS011;16877;48.810;9.282;2022-11-20T09:02:25;2.50;;;1.90;;
1366;SDS011;16877;48.810;9.282;2022-11-20T09:04:52;3.27;;;2.67;;
1366;SDS011;16877;48.810;9.282;2022-11-20T09:07:19;3.63;;;2.10;;
1366;SDS011;16877;48.810;9.282;2022-11-20T09:09:46;2.80;;;1.80;;
1366;SDS011;16877;48.810;9.282;2022-11-20T09:12:13;5.67;;;2.37;;
1366;SDS011;16877;48.810;9.282;2022-11-20T09:14:42;2.90;;;1.67;;
1366;SDS011;16877;48.810;9.282;2022-11-20T09:17:09;3.43;;;1.83;;
1366;SDS011;16877;48.810;9.282;2022-11-20T09:19:38;2.83;;;1.77;;
1366;SDS011;16877;48.810;9.282;2022-11-20T09:22:05;2.43;;;1.43;;
1366;SDS011;16877;48.810;9.282;2022-11-20T09:24:32;2.60;;;1.70;;
1366;SDS011;16877;48.810;9.282;2022-11-20T09:27:01;2.83;;;1.60;;
1366;SDS011;16877;48.810;9.282;2022-11-20T09:29:29;2.40;;;1.50;;
1366;SDS011;16877;48.810;9.282;2022-11-20T09:31:57;3.47;;;1.30;;
1366;SDS011;16877;48.810;9.282;2022-11-20T09:34:23;2.10;;;1.30;;
1366;SDS011;16877;48.810;9.282;2022-11-20T09:36:50;2.00;;;1.03;;
1366;SDS011;16877;48.810;9.282;2022-11-20T09:39:17;1.83;;;1.30;;
1366;SDS011;16877;48.810;9.282;2022-11-20T09:41:51;2.00;;;1.30;;
1366;SDS011;16877;48.810;9.282;2022-11-20T09:44:38;3.63;;;1.30;;
1366;SDS011;16877;48.810;9.282;2022-11-20T09:47:18;3.80;;;1.53;;
1366;SDS011;16877;48.810;9.282;2022-11-20T09:49:57;2.73;;;1.53;;
1366;SDS011;16877;48.810;9.282;2022-11-20T09:52:36;2.17;;;1.57;;
1366;SDS011;16877;48.810;9.282;2022-11-20T09:55:08;2.70;;;1.67;;
1366;SDS011;16877;48.810;9.282;2022-11-20T09:57:38;1.90;;;1.10;;
1366;SDS011;16877;48.810;9.282;2022-11-20T10:00:09;1.70;;;0.90;;
1366;SDS011;16877;48.810;9.282;2022-11-20T10:02:40;2.33;;;1.50;;
1366;SDS011;16877;48.810;9.282;2022-11-20T10:05:13;1.83;;;1.10;;
1366;SDS011;16877;48.810;9.282;2022-11-20T10:07:44;2.33;;;1.00;;
1366;SDS011;16877;48.810;9.282;2022-11-20T10:10:21;2.10;;;1.20;;
1366;SDS011;16877;48.810;9.282;2022-11-20T10:12:59;2.23;;;1.17;;
1366;SDS011;16877;48.810;9.282;2022-11-20T10:15:38;1.87;;;1.07;;
1366;SDS011;16877;48.810;9.282;2022-11-20T10:18:17;1.80;;;0.97;;
1366;SDS011;16877;48.810;9.282;2022-11-20T10:20:53;1.87;;;1.00;;
1366;SDS011;16877;48.810;9.282;2022-11-20T10:23:33;2.73;;;1.00;;
1366;SDS011;16877;48.810;9.282;2022-11-20T10:26:25;3.70;;;1.23;;
1366;SDS011;16877;48.810;9.282;2022-11-20T10:29:01;2.27;;;1.20;;
1366;SDS011;16877;48.810;9.282;2022-11-20T10:31:36;3.43;;;0.90;;
1366;SDS011;16877;48.810;9.282;2022-11-20T10:34:06;1.60;;;0.80;;
1366;SDS011;16877;48.810;9.282;2022-11-20T10:36:43;2.00;;;1.10;;
1366;SDS011;16877;48.810;9.282;2022-11-20T10:39:14;2.03;;;0.90;;
1366;SDS011;16877;48.810;9.282;2022-11-20T10:41:46;3.17;;;1.37;;
1366;SDS011;16877;48.810;9.282;2022-11-20T10:44:19;2.13;;;1.20;;
1366;SDS011;16877;48.810;9.282;2022-11-20T10:47:00;1.90;;;0.90;;
1366;SDS011;16877;48.810;9.282;2022-11-20T10:49:30;2.20;;;1.10;;
1366;SDS011;16877;48.810;9.282;2022-11-20T10:51:59;1.80;;;1.03;;
1366;SDS011;16877;48.810;9.282;2022-11-20T10:54:36;1.90;;;1.10;;
1366;SDS011;16877;48.810;9.282;2022-11-20T10:57:12;1.80;;;0.90;;
1366;SDS011;16877;48.810;9.282;2022-11-20T11:00:00;2.30;;;1.20;;
1366;SDS011;16877;48.810;9.282;2022-11-20T11:02:39;1.90;;;1.00;;
1366;SDS011;16877;48.810;9.282;2022-11-20T11:05:16;1.70;;;0.80;;
1366;SDS011;16877;48.810;9.282;2022-11-20T11:07:49;1.97;;;0.80;;
1366;SDS011;16877;48.810;9.282;2022-11-20T11:10:20;2.70;;;1.20;;
1366;SDS011;16877;48.810;9.282;2022-11-20T11:12:50;1.97;;;0.80;;
1366;SDS011;16877;48.810;9.282;2022-11-20T11:15:24;2.13;;;1.07;;
1366;SDS011;16877;48.810;9.282;2022-11-20T11:17:53;1.90;;;1.17;;
1366;SDS011;16877;48.810;9.282;2022-11-20T11:20:22;2.70;;;1.60;;
1366;SDS011;16877;48.810;9.282;2022-11-20T11:22:51;3.80;;;2.03;;
1366;SDS011;16877;48.810;9.282;2022-11-20T11:25:21;2.37;;;1.80;;
1366;SDS011;16877;48.810;9.282;2022-11-20T11:27:50;3.03;;;1.97;;
1366;SDS011;16877;48.810;9.282;2022-11-20T11:30:20;3.00;;;2.00;;
1366;SDS011;16877;48.810;9.282;2022-11-20T11:32:47;2.60;;;1.63;;
1366;SDS011;16877;48.810;9.282;2022-11-20T11:35:19;3.50;;;2.23;;
1366;SDS011;16877;48.810;9.282;2022-11-20T11:37:53;2.60;;;1.70;;
1366;SDS011;16877;48.810;9.282;2022-11-20T11:40:28;3.57;;;2.30;;
1366;SDS011;16877;48.810;9.282;2022-11-20T11:42:58;3.03;;;2.07;;
1366;SDS011;16877;48.810;9.282;2022-11-20T11:45:26;4.20;;;2.27;;
1366;SDS011;16877;48.810;9.282;2022-11-20T11:47:52;2.60;;;1.80;;
1366;SDS011;16877;48.810;9.282;2022-11-20T11:50:21;3.60;;;2.13;;
1366;SDS011;16877;48.810;9.282;2022-11-20T11:53:03;2.40;;;1.70;;
1366;SDS011;16877;48.810;9.282;2022-11-20T11:55:36;3.20;;;2.10;;
1366;SDS011;16877;48.810;9.282;2022-11-20T11:58:11;2.80;;;1.73;;
1366;SDS011;16877;48.810;9.282;2022-11-20T12:00:47;2.30;;;1.40;;
1366;SDS011;16877;48.810;9.282;2022-11-20T12:03:21;2.10;;;1.30;;
1366;SDS011;16877;48.810;9.282;2022-11-20T12:05:55;2.37;;;1.20;;
1366;SDS011;16877;48.810;9.282;2022-11-20T12:08:27;2.00;;;0.93;;
1366;SDS011;16877;48.810;9.282;2022-11-20T12:10:59;3.10;;;1.77;;
1366;SDS011;16877;48.810;9.282;2022-11-20T12:13:44;3.50;;;1.10;;
1366;SDS011;16877;48.810;9.282;2022-11-20T12:16:18;2.73;;;1.60;;
1366;SDS011;16877;48.810;9.282;2022-11-20T12:18:46;2.27;;;1.30;;
1366;SDS011;16877;48.810;9.282;2022-11-20T12:21:17;3.17;;;1.43;;
1366;SDS011;16877;48.810;9.282;2022-11-20T12:23:52;2.10;;;1.20;;
1366;SDS011;16877;48.810;9.282;2022-11-20T12:26:32;2.50;;;1.40;;
1366;SDS011;16877;48.810;9.282;2022-11-20T12:29:13;3.13;;;1.30;;
1366;SDS011;16877;48.810;9.282;2022-11-20T12:31:56;3.93;;;1.30;;
1366;SDS011;16877;48.810;9.282;2022-11-20T12:34:41;3.27;;;1.50;;
1366;SDS011;16877;48.810;9.282;2022-11-20T12:37:16;3.00;;;1.53;;
1366;SDS011;16877;48.810;9.282;2022-11-20T12:39:58;2.10;;;1.10;;
1366;SDS011;16877;48.810;9.282;2022-11-20T12:42:39;2.80;;;1.13;;
1366;SDS011;16877;48.810;9.282;2022-11-20T12:48:41;3.10;;;1.43;;
1366;SDS011;16877;48.810;9.282;2022-11-20T12:57:26;2.20;;;1.03;;
1366;SDS011;16877;48.810;9.282;2022-11-20T13:00:01;2.20;;;1.00;;
1366;SDS011;16877;48.810;9.282;2022-11-20T13:02:37;2.40;;;1.00;;
1366;SDS011;16877;48.810;9.282;2022-11-20T13:05:20;2.00;;;0.90;;
1366;SDS011;16877;48.810;9.282;2022-11-20T13:07:53;2.70;;;0.90;;
1366;SDS011;16877;48.810;9.282;2022-11-20T13:10:21;2.47;;;1.00;;
1366;SDS011;16877;48.810;9.282;2022-11-20T13:12:57;2.47;;;1.10;;
1366;SDS011;16877;48.810;9.282;2022-11-20T13:15:33;3.73;;;1.30;;
1366;SDS011;16877;48.810;9.282;2022-11-20T13:18:10;2.43;;;0.97;;
1366;SDS011;16877;48.810;9.282;2022-11-20T13:20:41;3.20;;;0.80;;
1366;SDS011;16877;48.810;9.282;2022-11-20T13:23:09;2.97;;;1.40;;
1366;SDS011;16877;48.810;9.282;2022-11-20T13:25:36;3.70;;;1.20;;
1366;SDS011;16877;48.810;9.282;2022-11-20T13:30:55;1.90;;;1.00;;
1366;SDS011;16877;48.810;9.282;2022-11-20T13:33:24;3.43;;;1.30;;
1366;SDS011;16877;48.810;9.282;2022-11-20T13:35:55;2.23;;;0.90;;
1366;SDS011;16877;48.810;9.282;2022-11-20T13:38:23;2.00;;;1.03;;
1366;SDS011;16877;48.810;9.282;2022-11-20T13:40:51;3.17;;;1.10;;
1366;SDS011;16877;48.810;9.282;2022-11-20T13:43:21;2.40;;;1.17;;
1366;SDS011;16877;48.810;9.282;2022-11-20T13:45:58;1.90;;;0.80;;
1366;SDS011;16877;48.810;9.282;2022-11-20T13:48:26;2.10;;;0.90;;
1366;SDS011;16877;48.810;9.282;2022-11-20T13:51:00;2.53;;;1.07;;
1366;SDS011;16877;48.810;9.282;2022-11-20T13:53:41;2.03;;;1.00;;
1366;SDS011;16877;48.810;9.282;2022-11-20T13:56:22;1.97;;;1.10;;
1366;SDS011;16877;48.810;9.282;2022-11-20T13:58:56;2.47;;;1.10;;
1366;SDS011;16877;48.810;9.282;2022-11-20T14:01:30;2.53;;;1.33;;
1366;SDS011;16877;48.810;9.282;2022-11-20T14:03:59;2.43;;;1.17;;
1366;SDS011;16877;48.810;9.282;2022-11-20T14:06:33;2.10;;;0.97;;
1366;SDS011;16877;48.810;9.282;2022-11-20T14:09:05;3.27;;;1.40;;
1366;SDS011;16877;48.810;9.282;2022-11-20T14:11:36;2.80;;;1.10;;
1366;SDS011;16877;48.810;9.282;2022-11-20T14:14:13;2.40;;;1.20;;
1366;SDS011;16877;48.810;9.282;2022-11-20T14:16:44;3.67;;;1.10;;
1366;SDS011;16877;48.810;9.282;2022-11-20T14:19:21;2.40;;;0.93;;
1366;SDS011;16877;48.810;9.282;2022-11-20T14:21:53;2.30;;;1.20;;
1366;SDS011;16877;48.810;9.282;2022-11-20T14:24:21;2.10;;;0.93;;
1366;SDS011;16877;48.810;9.282;2022-11-20T14:26:50;2.07;;;1.03;;
1366;SDS011;16877;48.810;9.282;2022-11-20T14:29:18;3.73;;;1.17;;
1366;SDS011;16877;48.810;9.282;2022-11-20T14:31:50;3.70;;;1.10;;
1366;SDS011;16877;48.810;9.282;2022-11-20T14:34:20;3.00;;;1.50;;
1366;SDS011;16877;48.810;9.282;2022-11-20T14:36:50;1.80;;;0.90;;
1366;SDS011;16877;48.810;9.282;2022-11-20T14:39:22;2.67;;;1.20;;
1366;SDS011;16877;48.810;9.282;2022-11-20T14:41:52;2.73;;;1.23;;
1366;SDS011;16877;48.810;9.282;2022-11-20T14:44:19;2.83;;;1.40;;
1366;SDS011;16877;48.810;9.282;2022-11-20T14:46:52;3.87;;;2.23;;
1366;SDS011;16877;48.810;9.282;2022-11-20T14:49:21;3.17;;;1.70;;
1366;SDS011;16877;48.810;9.282;2022-11-20T14:51:58;3.13;;;1.97;;
1366;SDS011;16877;48.810;9.282;2022-11-20T14:54:25;4.10;;;2.20;;
1366;SDS011;16877;48.810;9.282;2022-11-20T14:56:53;3.30;;;1.90;;
1366;SDS011;16877;48.810;9.282;2022-11-20T14:59:22;4.00;;;2.27;;
1366;SDS011;16877;48.810;9.282;2022-11-20T15:01:55;2.33;;;1.43;;
1366;SDS011;16877;48.810;9.282;2022-11-20T15:04:24;2.23;;;1.33;;
1366;SDS011;16877;48.810;9.282;2022-11-20T15:06:51;3.43;;;1.27;;
1366;SDS011;16877;48.810;9.282;2022-11-20T15:09:19;3.07;;;1.50;;
1366;SDS011;16877;48.810;9.282;2022-11-20T15:11:52;3.10;;;1.27;;
1366;SDS011;16877;48.810;9.282;2022-11-20T15:14:20;3.20;;;1.60;;
1366;SDS011;16877;48.810;9.282;2022-11-20T15:16:47;3.10;;;1.70;;
1366;SDS011;16877;48.810;9.282;2022-11-20T15:19:16;2.20;;;1.50;;
1366;SDS011;16877;48.810;9.282;2022-11-20T15:21:44;3.20;;;1.83;;
1366;SDS011;16877;48.810;9.282;2022-11-20T15:24:11;4.10;;;2.63;;
1366;SDS011;16877;48.810;9.282;2022-11-20T15:26:38;3.20;;;1.60;;
1366;SDS011;16877;48.810;9.282;2022-11-20T15:29:07;3.80;;;2.27;;